sensor_id;sensor_type;location;lat;lon;timestamp;P1;durP1;ratioP1;P2;durP2;ratioP2
27566;SDS011;15006;48.584;9.186;2023-04-25T00:00:29;3.92;;;3.60;;
27566;SDS011;15006;48.584;9.186;2023-04-25T00:02:55;3.60;;;3.40;;
27566;SDS011;15006;48.584;9.186;2023-04-25T00:05:22;3.95;;;3.55;;
27566;SDS011;15006;48.584;9.186;2023-04-25T00:07:49;4.10;;;3.80;;
27566;SDS011;15006;48.584;9.186;2023-04-25T00:10:16;3.17;;;2.97;;
27566;SDS011;15006;48.584;9.186;2023-04-25T00:12:42;3.28;;;3.08;;
27566;SDS011;15006;48.584;9.186;2023-04-25T00:15:08;3.47;;;3.28;;
27566;SDS011;15006;48.584;9.186;2023-04-25T00:17:34;4.20;;;3.15;;
27566;SDS011;15006;48.584;9.186;2023-04-25T00:20:00;3.58;;;3.38;;
27566;SDS011;15006;48.584;9.186;2023-04-25T00:22:30;4.30;;;4.10;;
27566;SDS011;15006;48.584;9.186;2023-04-25T00:24:56;4.00;;;3.80;;
27566;SDS011;15006;48.584;9.186;2023-04-25T00:27:25;4.38;;;4.07;;
27566;SDS011;15006;48.584;9.186;2023-04-25T00:29:52;4.03;;;3.80;;
27566;SDS011;15006;48.584;9.186;2023-04-25T00:32:18;3.95;;;3.70;;
27566;SDS011;15006;48.584;9.186;2023-04-25T00:34:43;3.75;;;3.55;;
27566;SDS011;15006;48.584;9.186;2023-04-25T00:37:10;3.78;;;3.47;;
27566;SDS011;15006;48.584;9.186;2023-04-25T00:39:36;3.80;;;3.53;;
27566;SDS011;15006;48.584;9.186;2023-04-25T00:42:02;3.97;;;3.67;;
27566;SDS011;15006;48.584;9.186;2023-04-25T00:44:29;6.53;;;3.80;;
27566;SDS011;15006;48.584;9.186;2023-04-25T00:46:57;3.80;;;3.50;;
27566;SDS011;15006;48.584;9.186;2023-04-25T00:49:23;3.83;;;3.53;;
27566;SDS011;15006;48.584;9.186;2023-04-25T00:51:49;3.72;;;3.35;;
27566;SDS011;15006;48.584;9.186;2023-04-25T00:54:15;4.03;;;3.75;;
27566;SDS011;15006;48.584;9.186;2023-04-25T00:56:42;4.70;;;3.70;;
27566;SDS011;15006;48.584;9.186;2023-04-25T00:59:10;3.50;;;3.30;;
27566;SDS011;15006;48.584;9.186;2023-04-25T01:01:36;5.97;;;3.50;;
27566;SDS011;15006;48.584;9.186;2023-04-25T01:04:04;3.95;;;3.67;;
27566;SDS011;15006;48.584;9.186;2023-04-25T01:06:30;4.45;;;4.05;;
27566;SDS011;15006;48.584;9.186;2023-04-25T01:08:57;6.78;;;3.70;;
27566;SDS011;15006;48.584;9.186;2023-04-25T01:11:24;3.70;;;3.47;;
27566;SDS011;15006;48.584;9.186;2023-04-25T01:13:50;3.28;;;3.08;;
27566;SDS011;15006;48.584;9.186;2023-04-25T01:16:17;3.20;;;3.00;;
27566;SDS011;15006;48.584;9.186;2023-04-25T01:18:43;3.40;;;3.10;;
27566;SDS011;15006;48.584;9.186;2023-04-25T01:21:11;3.08;;;2.88;;
27566;SDS011;15006;48.584;9.186;2023-04-25T01:23:39;3.40;;;2.92;;
27566;SDS011;15006;48.584;9.186;2023-04-25T01:26:06;3.45;;;3.08;;
27566;SDS011;15006;48.584;9.186;2023-04-25T01:28:34;3.67;;;3.08;;
27566;SDS011;15006;48.584;9.186;2023-04-25T01:31:00;3.38;;;3.17;;
27566;SDS011;15006;48.584;9.186;2023-04-25T01:33:27;3.70;;;3.47;;
27566;SDS011;15006;48.584;9.186;2023-04-25T01:35:54;3.60;;;3.40;;
27566;SDS011;15006;48.584;9.186;2023-04-25T01:38:20;2.85;;;2.60;;
27566;SDS011;15006;48.584;9.186;2023-04-25T01:40:46;3.20;;;3.00;;
27566;SDS011;15006;48.584;9.186;2023-04-25T01:43:16;3.40;;;3.10;;
27566;SDS011;15006;48.584;9.186;2023-04-25T01:45:42;3.28;;;3.10;;
27566;SDS011;15006;48.584;9.186;2023-04-25T01:48:09;2.97;;;2.88;;
27566;SDS011;15006;48.584;9.186;2023-04-25T01:50:37;3.90;;;3.60;;
27566;SDS011;15006;48.584;9.186;2023-04-25T01:53:05;4.65;;;3.80;;
27566;SDS011;15006;48.584;9.186;2023-04-25T01:55:31;3.55;;;3.20;;
27566;SDS011;15006;48.584;9.186;2023-04-25T01:57:57;3.92;;;3.40;;
27566;SDS011;15006;48.584;9.186;2023-04-25T02:00:24;9.68;;;3.50;;
27566;SDS011;15006;48.584;9.186;2023-04-25T02:02:50;3.50;;;3.08;;
27566;SDS011;15006;48.584;9.186;2023-04-25T02:05:18;3.17;;;2.97;;
27566;SDS011;15006;48.584;9.186;2023-04-25T02:07:46;3.50;;;3.20;;
27566;SDS011;15006;48.584;9.186;2023-04-25T02:10:12;3.38;;;3.05;;
27566;SDS011;15006;48.584;9.186;2023-04-25T02:12:39;3.60;;;3.30;;
27566;SDS011;15006;48.584;9.186;2023-04-25T02:15:05;3.30;;;3.10;;
27566;SDS011;15006;48.584;9.186;2023-04-25T02:17:31;3.13;;;2.92;;
27566;SDS011;15006;48.584;9.186;2023-04-25T02:19:57;3.08;;;2.97;;
27566;SDS011;15006;48.584;9.186;2023-04-25T02:22:23;5.47;;;3.15;;
27566;SDS011;15006;48.584;9.186;2023-04-25T02:24:49;6.80;;;3.42;;
27566;SDS011;15006;48.584;9.186;2023-04-25T02:27:15;3.50;;;3.20;;
27566;SDS011;15006;48.584;9.186;2023-04-25T02:29:41;3.58;;;3.28;;
27566;SDS011;15006;48.584;9.186;2023-04-25T02:32:07;3.30;;;3.10;;
27566;SDS011;15006;48.584;9.186;2023-04-25T02:34:33;3.53;;;2.95;;
27566;SDS011;15006;48.584;9.186;2023-04-25T02:36:59;3.03;;;2.83;;
27566;SDS011;15006;48.584;9.186;2023-04-25T02:39:26;3.35;;;3.15;;
27566;SDS011;15006;48.584;9.186;2023-04-25T02:41:52;4.07;;;3.60;;
27566;SDS011;15006;48.584;9.186;2023-04-25T02:44:18;3.33;;;3.13;;
27566;SDS011;15006;48.584;9.186;2023-04-25T02:46:45;3.20;;;3.00;;
27566;SDS011;15006;48.584;9.186;2023-04-25T02:49:11;6.75;;;3.15;;
27566;SDS011;15006;48.584;9.186;2023-04-25T02:51:37;3.85;;;3.55;;
27566;SDS011;15006;48.584;9.186;2023-04-25T02:54:24;3.63;;;3.00;;
27566;SDS011;15006;48.584;9.186;2023-04-25T02:56:52;3.40;;;3.20;;
27566;SDS011;15006;48.584;9.186;2023-04-25T02:59:18;4.43;;;3.25;;
27566;SDS011;15006;48.584;9.186;2023-04-25T03:01:44;3.47;;;3.28;;
27566;SDS011;15006;48.584;9.186;2023-04-25T03:04:10;5.63;;;3.28;;
27566;SDS011;15006;48.584;9.186;2023-04-25T03:06:36;4.68;;;3.97;;
27566;SDS011;15006;48.584;9.186;2023-04-25T03:09:02;3.65;;;3.35;;
27566;SDS011;15006;48.584;9.186;2023-04-25T03:11:29;4.40;;;3.38;;
27566;SDS011;15006;48.584;9.186;2023-04-25T03:13:55;8.30;;;3.75;;
27566;SDS011;15006;48.584;9.186;2023-04-25T03:16:21;3.45;;;3.15;;
27566;SDS011;15006;48.584;9.186;2023-04-25T03:18:47;3.90;;;3.60;;
27566;SDS011;15006;48.584;9.186;2023-04-25T03:21:15;3.63;;;3.33;;
27566;SDS011;15006;48.584;9.186;2023-04-25T03:23:41;4.47;;;3.72;;
27566;SDS011;15006;48.584;9.186;2023-04-25T03:26:07;4.82;;;3.72;;
27566;SDS011;15006;48.584;9.186;2023-04-25T03:28:33;4.82;;;3.60;;
27566;SDS011;15006;48.584;9.186;2023-04-25T03:30:59;5.40;;;3.85;;
27566;SDS011;15006;48.584;9.186;2023-04-25T03:33:25;5.97;;;3.90;;
27566;SDS011;15006;48.584;9.186;2023-04-25T03:35:51;8.65;;;3.97;;
27566;SDS011;15006;48.584;9.186;2023-04-25T03:38:18;5.07;;;4.57;;
27566;SDS011;15006;48.584;9.186;2023-04-25T03:40:44;4.60;;;3.92;;
27566;SDS011;15006;48.584;9.186;2023-04-25T03:43:10;3.92;;;3.40;;
27566;SDS011;15006;48.584;9.186;2023-04-25T03:45:36;4.18;;;3.88;;
27566;SDS011;15006;48.584;9.186;2023-04-25T03:48:02;4.10;;;3.80;;
27566;SDS011;15006;48.584;9.186;2023-04-25T03:50:30;4.15;;;3.85;;
27566;SDS011;15006;48.584;9.186;2023-04-25T03:52:56;4.53;;;4.00;;
27566;SDS011;15006;48.584;9.186;2023-04-25T03:55:22;4.40;;;4.00;;
27566;SDS011;15006;48.584;9.186;2023-04-25T03:57:48;4.05;;;3.40;;
27566;SDS011;15006;48.584;9.186;2023-04-25T04:00:14;3.85;;;3.45;;
27566;SDS011;15006;48.584;9.186;2023-04-25T04:02:40;3.72;;;3.35;;
27566;SDS011;15006;48.584;9.186;2023-04-25T04:05:06;4.03;;;3.70;;
27566;SDS011;15006;48.584;9.186;2023-04-25T04:07:32;4.07;;;3.22;;
27566;SDS011;15006;48.584;9.186;2023-04-25T04:10:01;6.18;;;3.47;;
27566;SDS011;15006;48.584;9.186;2023-04-25T04:12:27;3.35;;;2.85;;
27566;SDS011;15006;48.584;9.186;2023-04-25T04:14:53;3.80;;;3.50;;
27566;SDS011;15006;48.584;9.186;2023-04-25T04:17:19;3.70;;;3.40;;
27566;SDS011;15006;48.584;9.186;2023-04-25T04:19:45;3.70;;;3.50;;
27566;SDS011;15006;48.584;9.186;2023-04-25T04:22:11;3.67;;;3.20;;
27566;SDS011;15006;48.584;9.186;2023-04-25T04:24:37;3.90;;;3.60;;
27566;SDS011;15006;48.584;9.186;2023-04-25T04:27:04;4.05;;;3.60;;
27566;SDS011;15006;48.584;9.186;2023-04-25T04:29:31;12.23;;;3.55;;
27566;SDS011;15006;48.584;9.186;2023-04-25T04:31:56;6.40;;;3.40;;
27566;SDS011;15006;48.584;9.186;2023-04-25T04:34:23;3.75;;;3.45;;
27566;SDS011;15006;48.584;9.186;2023-04-25T04:36:50;3.72;;;3.42;;
27566;SDS011;15006;48.584;9.186;2023-04-25T04:39:15;3.50;;;3.20;;
27566;SDS011;15006;48.584;9.186;2023-04-25T04:41:41;5.78;;;3.60;;
27566;SDS011;15006;48.584;9.186;2023-04-25T04:44:08;4.88;;;3.42;;
27566;SDS011;15006;48.584;9.186;2023-04-25T04:46:34;6.63;;;3.67;;
27566;SDS011;15006;48.584;9.186;2023-04-25T04:49:13;8.13;;;3.10;;
27566;SDS011;15006;48.584;9.186;2023-04-25T04:51:39;3.40;;;3.10;;
27566;SDS011;15006;48.584;9.186;2023-04-25T04:54:06;3.45;;;3.15;;
27566;SDS011;15006;48.584;9.186;2023-04-25T04:56:32;3.95;;;3.10;;
27566;SDS011;15006;48.584;9.186;2023-04-25T04:58:58;3.80;;;2.78;;
27566;SDS011;15006;48.584;9.186;2023-04-25T05:01:25;3.03;;;2.83;;
27566;SDS011;15006;48.584;9.186;2023-04-25T05:03:52;3.00;;;2.80;;
27566;SDS011;15006;48.584;9.186;2023-04-25T05:06:18;5.80;;;3.00;;
27566;SDS011;15006;48.584;9.186;2023-04-25T05:08:44;3.13;;;2.92;;
27566;SDS011;15006;48.584;9.186;2023-04-25T05:11:10;4.35;;;3.33;;
27566;SDS011;15006;48.584;9.186;2023-04-25T05:13:36;3.00;;;2.80;;
27566;SDS011;15006;48.584;9.186;2023-04-25T05:16:03;3.08;;;2.83;;
27566;SDS011;15006;48.584;9.186;2023-04-25T05:18:29;5.57;;;3.10;;
27566;SDS011;15006;48.584;9.186;2023-04-25T05:20:55;3.90;;;3.03;;
27566;SDS011;15006;48.584;9.186;2023-04-25T05:23:21;4.18;;;3.20;;
27566;SDS011;15006;48.584;9.186;2023-04-25T05:25:48;3.00;;;2.80;;
27566;SDS011;15006;48.584;9.186;2023-04-25T05:28:13;3.65;;;2.55;;
27566;SDS011;15006;48.584;9.186;2023-04-25T05:30:39;2.75;;;2.55;;
27566;SDS011;15006;48.584;9.186;2023-04-25T05:33:05;2.95;;;2.80;;
27566;SDS011;15006;48.584;9.186;2023-04-25T05:35:32;3.00;;;2.72;;
27566;SDS011;15006;48.584;9.186;2023-04-25T05:37:58;3.72;;;2.78;;
27566;SDS011;15006;48.584;9.186;2023-04-25T05:40:24;3.60;;;3.10;;
27566;SDS011;15006;48.584;9.186;2023-04-25T05:42:50;3.42;;;2.97;;
27566;SDS011;15006;48.584;9.186;2023-04-25T05:45:16;4.45;;;3.20;;
27566;SDS011;15006;48.584;9.186;2023-04-25T05:47:43;3.30;;;3.10;;
27566;SDS011;15006;48.584;9.186;2023-04-25T05:50:09;3.70;;;2.95;;
27566;SDS011;15006;48.584;9.186;2023-04-25T05:52:35;3.40;;;3.08;;
27566;SDS011;15006;48.584;9.186;2023-04-25T05:55:01;3.30;;;3.00;;
27566;SDS011;15006;48.584;9.186;2023-04-25T05:57:28;3.50;;;3.20;;
27566;SDS011;15006;48.584;9.186;2023-04-25T05:59:55;3.47;;;3.00;;
27566;SDS011;15006;48.584;9.186;2023-04-25T06:02:21;4.35;;;3.13;;
27566;SDS011;15006;48.584;9.186;2023-04-25T06:04:50;6.57;;;2.90;;
27566;SDS011;15006;48.584;9.186;2023-04-25T06:07:17;4.68;;;4.22;;
27566;SDS011;15006;48.584;9.186;2023-04-25T06:09:45;6.85;;;5.10;;
27566;SDS011;15006;48.584;9.186;2023-04-25T06:12:11;7.57;;;4.60;;
27566;SDS011;15006;48.584;9.186;2023-04-25T06:14:37;4.00;;;3.47;;
27566;SDS011;15006;48.584;9.186;2023-04-25T06:17:03;4.63;;;3.15;;
27566;SDS011;15006;48.584;9.186;2023-04-25T06:19:34;3.20;;;2.78;;
27566;SDS011;15006;48.584;9.186;2023-04-25T06:22:01;3.83;;;2.65;;
27566;SDS011;15006;48.584;9.186;2023-04-25T06:24:27;2.63;;;2.40;;
27566;SDS011;15006;48.584;9.186;2023-04-25T06:26:54;3.28;;;2.53;;
27566;SDS011;15006;48.584;9.186;2023-04-25T06:29:20;3.28;;;2.60;;
27566;SDS011;15006;48.584;9.186;2023-04-25T06:31:46;2.33;;;2.13;;
27566;SDS011;15006;48.584;9.186;2023-04-25T06:34:12;2.10;;;2.00;;
27566;SDS011;15006;48.584;9.186;2023-04-25T06:36:38;3.65;;;2.25;;
27566;SDS011;15006;48.584;9.186;2023-04-25T06:39:04;2.47;;;2.22;;
27566;SDS011;15006;48.584;9.186;2023-04-25T06:41:30;2.50;;;2.30;;
27566;SDS011;15006;48.584;9.186;2023-04-25T06:43:56;2.20;;;2.03;;
27566;SDS011;15006;48.584;9.186;2023-04-25T06:46:22;3.95;;;2.50;;
27566;SDS011;15006;48.584;9.186;2023-04-25T06:48:48;3.45;;;2.30;;
27566;SDS011;15006;48.584;9.186;2023-04-25T06:51:15;2.83;;;2.50;;
27566;SDS011;15006;48.584;9.186;2023-04-25T06:53:41;2.60;;;2.40;;
27566;SDS011;15006;48.584;9.186;2023-04-25T06:56:07;4.82;;;3.28;;
27566;SDS011;15006;48.584;9.186;2023-04-25T06:58:33;3.28;;;2.35;;
27566;SDS011;15006;48.584;9.186;2023-04-25T07:00:59;2.53;;;2.30;;
27566;SDS011;15006;48.584;9.186;2023-04-25T07:03:25;3.47;;;2.70;;
27566;SDS011;15006;48.584;9.186;2023-04-25T07:05:51;2.97;;;2.60;;
27566;SDS011;15006;48.584;9.186;2023-04-25T07:08:17;2.50;;;2.30;;
27566;SDS011;15006;48.584;9.186;2023-04-25T07:10:43;2.67;;;2.47;;
27566;SDS011;15006;48.584;9.186;2023-04-25T07:13:11;3.60;;;3.28;;
27566;SDS011;15006;48.584;9.186;2023-04-25T07:15:37;3.80;;;3.50;;
27566;SDS011;15006;48.584;9.186;2023-04-25T07:18:03;5.20;;;3.55;;
27566;SDS011;15006;48.584;9.186;2023-04-25T07:20:29;4.22;;;3.58;;
27566;SDS011;15006;48.584;9.186;2023-04-25T07:22:56;3.67;;;3.47;;
27566;SDS011;15006;48.584;9.186;2023-04-25T07:25:22;3.70;;;3.40;;
27566;SDS011;15006;48.584;9.186;2023-04-25T07:27:48;3.45;;;3.25;;
27566;SDS011;15006;48.584;9.186;2023-04-25T07:30:14;5.72;;;3.30;;
27566;SDS011;15006;48.584;9.186;2023-04-25T07:32:40;4.53;;;3.75;;
27566;SDS011;15006;48.584;9.186;2023-04-25T07:35:07;5.20;;;3.67;;
27566;SDS011;15006;48.584;9.186;2023-04-25T07:37:33;3.47;;;3.20;;
27566;SDS011;15006;48.584;9.186;2023-04-25T07:40:01;4.25;;;3.13;;
27566;SDS011;15006;48.584;9.186;2023-04-25T07:42:29;5.88;;;3.08;;
27566;SDS011;15006;48.584;9.186;2023-04-25T07:44:56;3.30;;;3.00;;
27566;SDS011;15006;48.584;9.186;2023-04-25T07:47:22;3.60;;;3.30;;
27566;SDS011;15006;48.584;9.186;2023-04-25T07:49:48;4.20;;;3.80;;
27566;SDS011;15006;48.584;9.186;2023-04-25T07:52:14;6.03;;;4.03;;
27566;SDS011;15006;48.584;9.186;2023-04-25T07:54:40;4.22;;;3.85;;
27566;SDS011;15006;48.584;9.186;2023-04-25T07:57:07;4.32;;;4.05;;
27566;SDS011;15006;48.584;9.186;2023-04-25T07:59:33;4.63;;;4.32;;
27566;SDS011;15006;48.584;9.186;2023-04-25T08:02:00;4.80;;;4.50;;
27566;SDS011;15006;48.584;9.186;2023-04-25T08:04:28;5.28;;;4.93;;
27566;SDS011;15006;48.584;9.186;2023-04-25T08:06:54;5.28;;;4.88;;
27566;SDS011;15006;48.584;9.186;2023-04-25T08:09:20;4.28;;;3.97;;
27566;SDS011;15006;48.584;9.186;2023-04-25T08:11:46;4.35;;;4.05;;
27566;SDS011;15006;48.584;9.186;2023-04-25T08:14:12;3.85;;;3.65;;
27566;SDS011;15006;48.584;9.186;2023-04-25T08:16:39;3.55;;;3.00;;
27566;SDS011;15006;48.584;9.186;2023-04-25T08:19:05;3.75;;;3.55;;
27566;SDS011;15006;48.584;9.186;2023-04-25T08:21:31;4.00;;;3.60;;
27566;SDS011;15006;48.584;9.186;2023-04-25T08:23:57;3.88;;;3.53;;
27566;SDS011;15006;48.584;9.186;2023-04-25T08:26:24;4.40;;;4.20;;
27566;SDS011;15006;48.584;9.186;2023-04-25T08:28:50;4.40;;;4.07;;
27566;SDS011;15006;48.584;9.186;2023-04-25T08:31:16;4.90;;;4.57;;
27566;SDS011;15006;48.584;9.186;2023-04-25T08:33:43;4.40;;;3.92;;
27566;SDS011;15006;48.584;9.186;2023-04-25T08:36:10;5.70;;;5.03;;
27566;SDS011;15006;48.584;9.186;2023-04-25T08:38:36;5.00;;;4.60;;
27566;SDS011;15006;48.584;9.186;2023-04-25T08:41:02;5.18;;;4.88;;
27566;SDS011;15006;48.584;9.186;2023-04-25T08:43:29;4.40;;;4.10;;
27566;SDS011;15006;48.584;9.186;2023-04-25T08:45:59;5.18;;;4.78;;
27566;SDS011;15006;48.584;9.186;2023-04-25T08:48:29;6.05;;;5.63;;
27566;SDS011;15006;48.584;9.186;2023-04-25T08:50:58;5.18;;;4.78;;
27566;SDS011;15006;48.584;9.186;2023-04-25T08:53:32;5.13;;;4.63;;
27566;SDS011;15006;48.584;9.186;2023-04-25T08:56:00;4.35;;;4.03;;
27566;SDS011;15006;48.584;9.186;2023-04-25T08:58:27;6.13;;;5.35;;
27566;SDS011;15006;48.584;9.186;2023-04-25T09:00:55;6.53;;;5.97;;
27566;SDS011;15006;48.584;9.186;2023-04-25T09:03:20;6.20;;;5.80;;
27566;SDS011;15006;48.584;9.186;2023-04-25T09:05:46;5.82;;;5.32;;
27566;SDS011;15006;48.584;9.186;2023-04-25T09:08:12;5.47;;;5.07;;
27566;SDS011;15006;48.584;9.186;2023-04-25T09:10:39;5.15;;;4.85;;
27566;SDS011;15006;48.584;9.186;2023-04-25T09:13:09;5.30;;;5.00;;
27566;SDS011;15006;48.584;9.186;2023-04-25T09:15:50;4.57;;;4.28;;
27566;SDS011;15006;48.584;9.186;2023-04-25T09:18:27;5.95;;;5.43;;
27566;SDS011;15006;48.584;9.186;2023-04-25T09:20:56;9.68;;;5.38;;
27566;SDS011;15006;48.584;9.186;2023-04-25T09:23:41;5.18;;;4.88;;
27566;SDS011;15006;48.584;9.186;2023-04-25T09:26:16;6.18;;;5.57;;
27566;SDS011;15006;48.584;9.186;2023-04-25T09:28:45;5.40;;;5.07;;
27566;SDS011;15006;48.584;9.186;2023-04-25T09:31:20;5.68;;;5.25;;
27566;SDS011;15006;48.584;9.186;2023-04-25T09:33:49;5.88;;;5.47;;
27566;SDS011;15006;48.584;9.186;2023-04-25T09:36:15;6.03;;;5.60;;
27566;SDS011;15006;48.584;9.186;2023-04-25T09:38:42;5.75;;;5.20;;
27566;SDS011;15006;48.584;9.186;2023-04-25T09:41:10;5.57;;;4.97;;
27566;SDS011;15006;48.584;9.186;2023-04-25T09:43:37;5.22;;;4.85;;
27566;SDS011;15006;48.584;9.186;2023-04-25T09:46:08;4.65;;;4.20;;
27566;SDS011;15006;48.584;9.186;2023-04-25T09:48:36;4.43;;;3.97;;
27566;SDS011;15006;48.584;9.186;2023-04-25T09:53:29;3.88;;;3.67;;
27566;SDS011;15006;48.584;9.186;2023-04-25T09:55:57;4.22;;;3.92;;
27566;SDS011;15006;48.584;9.186;2023-04-25T09:58:26;4.38;;;3.97;;
27566;SDS011;15006;48.584;9.186;2023-04-25T10:00:56;3.80;;;3.60;;
27566;SDS011;15006;48.584;9.186;2023-04-25T10:03:31;4.00;;;3.78;;
27566;SDS011;15006;48.584;9.186;2023-04-25T10:05:59;4.57;;;4.20;;
27566;SDS011;15006;48.584;9.186;2023-04-25T10:08:31;3.80;;;3.60;;
27566;SDS011;15006;48.584;9.186;2023-04-25T10:11:00;4.43;;;4.00;;
27566;SDS011;15006;48.584;9.186;2023-04-25T10:13:30;4.60;;;4.30;;
27566;SDS011;15006;48.584;9.186;2023-04-25T10:16:01;3.75;;;3.55;;
27566;SDS011;15006;48.584;9.186;2023-04-25T10:18:30;3.20;;;2.90;;
27566;SDS011;15006;48.584;9.186;2023-04-25T10:20:58;3.50;;;3.30;;
27566;SDS011;15006;48.584;9.186;2023-04-25T10:23:27;2.58;;;2.47;;
27566;SDS011;15006;48.584;9.186;2023-04-25T10:25:56;2.92;;;2.70;;
27566;SDS011;15006;48.584;9.186;2023-04-25T10:28:23;2.25;;;2.15;;
27566;SDS011;15006;48.584;9.186;2023-04-25T10:31:03;2.33;;;2.22;;
27566;SDS011;15006;48.584;9.186;2023-04-25T10:33:32;1.90;;;1.80;;
27566;SDS011;15006;48.584;9.186;2023-04-25T10:36:17;1.60;;;1.60;;
27566;SDS011;15006;48.584;9.186;2023-04-25T10:38:47;1.25;;;1.23;;
27566;SDS011;15006;48.584;9.186;2023-04-25T10:41:17;1.30;;;1.20;;
27566;SDS011;15006;48.584;9.186;2023-04-25T10:43:46;0.90;;;0.90;;
27566;SDS011;15006;48.584;9.186;2023-04-25T10:46:15;0.88;;;0.88;;
27566;SDS011;15006;48.584;9.186;2023-04-25T10:48:45;0.90;;;0.90;;
27566;SDS011;15006;48.584;9.186;2023-04-25T10:51:18;0.98;;;0.90;;
27566;SDS011;15006;48.584;9.186;2023-04-25T10:59:26;0.50;;;0.50;;
27566;SDS011;15006;48.584;9.186;2023-04-25T11:01:47;0.55;;;0.40;;
27566;SDS011;15006;48.584;9.186;2023-04-25T11:04:22;0.50;;;0.43;;
27566;SDS011;15006;48.584;9.186;2023-04-25T11:09:38;0.38;;;0.38;;
27566;SDS011;15006;48.584;9.186;2023-04-25T11:12:07;0.40;;;0.40;;
27566;SDS011;15006;48.584;9.186;2023-04-25T11:14:35;0.50;;;0.50;;
27566;SDS011;15006;48.584;9.186;2023-04-25T11:17:01;0.50;;;0.50;;
27566;SDS011;15006;48.584;9.186;2023-04-25T11:19:28;0.57;;;0.57;;
27566;SDS011;15006;48.584;9.186;2023-04-25T11:21:55;0.70;;;0.50;;
27566;SDS011;15006;48.584;9.186;2023-04-25T11:24:29;0.80;;;0.68;;
27566;SDS011;15006;48.584;9.186;2023-04-25T11:26:58;0.50;;;0.50;;
27566;SDS011;15006;48.584;9.186;2023-04-25T11:29:28;1.00;;;1.00;;
27566;SDS011;15006;48.584;9.186;2023-04-25T11:31:56;1.10;;;1.10;;
27566;SDS011;15006;48.584;9.186;2023-04-25T11:34:27;1.30;;;1.20;;
27566;SDS011;15006;48.584;9.186;2023-04-25T11:36:58;1.27;;;1.20;;
27566;SDS011;15006;48.584;9.186;2023-04-25T11:39:26;1.17;;;1.17;;
27566;SDS011;15006;48.584;9.186;2023-04-25T11:41:54;1.20;;;1.20;;
27566;SDS011;15006;48.584;9.186;2023-04-25T11:44:21;2.88;;;1.30;;
27566;SDS011;15006;48.584;9.186;2023-04-25T11:46:47;1.15;;;1.15;;
27566;SDS011;15006;48.584;9.186;2023-04-25T11:49:14;1.30;;;1.27;;
27566;SDS011;15006;48.584;9.186;2023-04-25T11:51:41;0.95;;;0.95;;
27566;SDS011;15006;48.584;9.186;2023-04-25T11:54:12;1.35;;;1.30;;
27566;SDS011;15006;48.584;9.186;2023-04-25T11:56:42;0.90;;;0.90;;
27566;SDS011;15006;48.584;9.186;2023-04-25T11:59:09;0.80;;;0.80;;
27566;SDS011;15006;48.584;9.186;2023-04-25T12:01:38;0.85;;;0.85;;
27566;SDS011;15006;48.584;9.186;2023-04-25T12:06:44;0.93;;;0.93;;
27566;SDS011;15006;48.584;9.186;2023-04-25T12:09:16;0.95;;;0.85;;
27566;SDS011;15006;48.584;9.186;2023-04-25T12:11:56;2.55;;;1.50;;
27566;SDS011;15006;48.584;9.186;2023-04-25T12:14:27;1.30;;;1.20;;
27566;SDS011;15006;48.584;9.186;2023-04-25T12:16:57;1.00;;;1.00;;
27566;SDS011;15006;48.584;9.186;2023-04-25T12:19:28;1.10;;;1.10;;
27566;SDS011;15006;48.584;9.186;2023-04-25T12:21:59;1.60;;;1.50;;
27566;SDS011;15006;48.584;9.186;2023-04-25T12:24:28;1.50;;;1.35;;
27566;SDS011;15006;48.584;9.186;2023-04-25T12:27:02;1.08;;;1.08;;
27566;SDS011;15006;48.584;9.186;2023-04-25T12:29:32;1.23;;;1.10;;
27566;SDS011;15006;48.584;9.186;2023-04-25T12:31:59;1.30;;;1.02;;
27566;SDS011;15006;48.584;9.186;2023-04-25T12:34:27;1.20;;;1.20;;
27566;SDS011;15006;48.584;9.186;2023-04-25T12:36:53;1.23;;;1.20;;
27566;SDS011;15006;48.584;9.186;2023-04-25T12:39:23;2.15;;;1.23;;
27566;SDS011;15006;48.584;9.186;2023-04-25T12:41:52;1.50;;;1.50;;
27566;SDS011;15006;48.584;9.186;2023-04-25T12:44:21;2.72;;;1.48;;
27566;SDS011;15006;48.584;9.186;2023-04-25T12:46:47;1.60;;;1.50;;
27566;SDS011;15006;48.584;9.186;2023-04-25T12:49:14;2.47;;;1.58;;
27566;SDS011;15006;48.584;9.186;2023-04-25T12:51:40;1.50;;;1.40;;
27566;SDS011;15006;48.584;9.186;2023-04-25T12:54:07;1.65;;;1.55;;
27566;SDS011;15006;48.584;9.186;2023-04-25T12:56:33;1.40;;;1.40;;
27566;SDS011;15006;48.584;9.186;2023-04-25T12:59:01;1.25;;;1.25;;
27566;SDS011;15006;48.584;9.186;2023-04-25T13:01:30;1.35;;;1.30;;
27566;SDS011;15006;48.584;9.186;2023-04-25T13:03:57;1.33;;;1.13;;
27566;SDS011;15006;48.584;9.186;2023-04-25T13:06:23;1.63;;;1.52;;
27566;SDS011;15006;48.584;9.186;2023-04-25T13:08:49;1.40;;;1.30;;
27566;SDS011;15006;48.584;9.186;2023-04-25T13:11:15;1.98;;;1.88;;
27566;SDS011;15006;48.584;9.186;2023-04-25T13:13:41;1.75;;;1.65;;
27566;SDS011;15006;48.584;9.186;2023-04-25T13:16:08;1.40;;;1.30;;
27566;SDS011;15006;48.584;9.186;2023-04-25T13:18:34;1.20;;;1.20;;
27566;SDS011;15006;48.584;9.186;2023-04-25T13:21:01;1.00;;;1.00;;
27566;SDS011;15006;48.584;9.186;2023-04-25T13:23:28;1.30;;;1.23;;
27566;SDS011;15006;48.584;9.186;2023-04-25T13:25:55;1.50;;;1.40;;
27566;SDS011;15006;48.584;9.186;2023-04-25T13:30:53;1.55;;;1.42;;
27566;SDS011;15006;48.584;9.186;2023-04-25T13:33:19;2.03;;;1.92;;
27566;SDS011;15006;48.584;9.186;2023-04-25T13:35:47;2.00;;;1.90;;
27566;SDS011;15006;48.584;9.186;2023-04-25T13:38:22;1.98;;;1.88;;
27566;SDS011;15006;48.584;9.186;2023-04-25T13:40:50;1.98;;;1.88;;
27566;SDS011;15006;48.584;9.186;2023-04-25T13:43:20;1.85;;;1.75;;
27566;SDS011;15006;48.584;9.186;2023-04-25T13:45:49;1.35;;;1.35;;
27566;SDS011;15006;48.584;9.186;2023-04-25T13:48:17;1.70;;;1.60;;
27566;SDS011;15006;48.584;9.186;2023-04-25T13:50:44;2.22;;;2.00;;
27566;SDS011;15006;48.584;9.186;2023-04-25T13:53:11;1.85;;;1.75;;
27566;SDS011;15006;48.584;9.186;2023-04-25T13:55:37;2.22;;;2.13;;
27566;SDS011;15006;48.584;9.186;2023-04-25T13:58:04;2.20;;;2.10;;
27566;SDS011;15006;48.584;9.186;2023-04-25T14:00:36;2.08;;;1.98;;
27566;SDS011;15006;48.584;9.186;2023-04-25T14:03:04;2.50;;;2.30;;
27566;SDS011;15006;48.584;9.186;2023-04-25T14:05:32;11.73;;;7.18;;
27566;SDS011;15006;48.584;9.186;2023-04-25T14:08:03;3.33;;;3.13;;
27566;SDS011;15006;48.584;9.186;2023-04-25T14:10:31;2.83;;;2.58;;
27566;SDS011;15006;48.584;9.186;2023-04-25T14:12:57;2.50;;;2.40;;
27566;SDS011;15006;48.584;9.186;2023-04-25T14:15:23;2.22;;;2.13;;
27566;SDS011;15006;48.584;9.186;2023-04-25T14:17:50;2.22;;;2.13;;
27566;SDS011;15006;48.584;9.186;2023-04-25T14:20:16;2.20;;;2.10;;
27566;SDS011;15006;48.584;9.186;2023-04-25T14:22:45;3.45;;;3.25;;
27566;SDS011;15006;48.584;9.186;2023-04-25T14:25:11;4.75;;;4.35;;
27566;SDS011;15006;48.584;9.186;2023-04-25T14:27:38;4.40;;;4.20;;
27566;SDS011;15006;48.584;9.186;2023-04-25T14:30:04;10.25;;;9.18;;
27566;SDS011;15006;48.584;9.186;2023-04-25T14:32:34;5.90;;;5.50;;
27566;SDS011;15006;48.584;9.186;2023-04-25T14:35:00;4.97;;;4.57;;
27566;SDS011;15006;48.584;9.186;2023-04-25T14:37:26;4.88;;;4.50;;
27566;SDS011;15006;48.584;9.186;2023-04-25T14:39:52;5.22;;;4.85;;
27566;SDS011;15006;48.584;9.186;2023-04-25T14:42:18;5.13;;;4.72;;
27566;SDS011;15006;48.584;9.186;2023-04-25T14:44:44;5.00;;;4.53;;
27566;SDS011;15006;48.584;9.186;2023-04-25T14:47:10;4.88;;;4.60;;
27566;SDS011;15006;48.584;9.186;2023-04-25T14:49:36;5.90;;;5.50;;
27566;SDS011;15006;48.584;9.186;2023-04-25T14:52:02;5.90;;;5.50;;
27566;SDS011;15006;48.584;9.186;2023-04-25T14:54:29;4.88;;;4.57;;
27566;SDS011;15006;48.584;9.186;2023-04-25T14:56:55;4.75;;;4.45;;
27566;SDS011;15006;48.584;9.186;2023-04-25T14:59:21;4.35;;;4.10;;
27566;SDS011;15006;48.584;9.186;2023-04-25T15:01:48;4.15;;;3.95;;
27566;SDS011;15006;48.584;9.186;2023-04-25T15:04:15;5.20;;;4.80;;